createdAt,value
2022-09-06T00:00:18.562Z,2.67
2022-09-06T00:02:46.126Z,2.47
2022-09-06T00:05:13.258Z,2.63
2022-09-06T00:07:40.377Z,3.00
2022-09-06T00:10:08.569Z,2.37
2022-09-06T00:12:36.086Z,2.57
2022-09-06T00:15:04.541Z,2.60
2022-09-06T00:17:33.109Z,2.83
2022-09-06T00:20:00.067Z,3.00
2022-09-06T00:22:26.993Z,2.70
2022-09-06T00:24:53.994Z,2.50
2022-09-06T00:27:21.405Z,2.53
2022-09-06T00:29:48.370Z,2.77
2022-09-06T00:32:15.356Z,2.60
2022-09-06T00:34:42.248Z,2.53
2022-09-06T00:37:09.177Z,2.57
2022-09-06T00:39:36.267Z,2.37
2022-09-06T00:42:07.494Z,2.40
2022-09-06T00:44:34.474Z,2.53
2022-09-06T00:47:01.805Z,3.03
2022-09-06T00:49:43.889Z,2.73
2022-09-06T00:52:13.845Z,2.80
2022-09-06T00:54:42.424Z,2.70
2022-09-06T00:57:10.181Z,2.90
2022-09-06T00:59:39.489Z,2.50
2022-09-06T01:02:07.199Z,2.90
2022-09-06T01:04:35.643Z,2.53
2022-09-06T01:07:24.339Z,3.33
2022-09-06T01:09:54.208Z,2.70
2022-09-06T01:12:41.091Z,3.07
2022-09-06T01:15:15.634Z,3.07
2022-09-06T01:18:00.437Z,2.97
2022-09-06T01:20:52.285Z,3.13
2022-09-06T01:23:41.222Z,2.73
2022-09-06T01:26:32.621Z,3.10
2022-09-06T01:28:59.817Z,3.10
2022-09-06T01:31:44.591Z,3.03
2022-09-06T01:34:31.610Z,2.83
2022-09-06T01:37:11.076Z,2.93
2022-09-06T01:39:39.995Z,3.00
2022-09-06T01:42:18.930Z,3.07
2022-09-06T01:45:01.897Z,2.40
2022-09-06T01:47:40.568Z,2.50
2022-09-06T01:50:31.789Z,2.80
2022-09-06T01:53:34.488Z,3.00
2022-09-06T01:56:16.186Z,3.23
2022-09-06T01:59:01.694Z,2.80
2022-09-06T02:01:36.367Z,2.50
2022-09-06T02:04:21.681Z,2.70
2022-09-06T02:06:59.001Z,2.93
2022-09-06T02:09:29.004Z,2.90
2022-09-06T02:12:01.273Z,2.50
2022-09-06T02:14:43.233Z,3.13
2022-09-06T02:17:14.489Z,3.20
2022-09-06T02:19:56.061Z,2.90
2022-09-06T02:22:27.404Z,2.63
2022-09-06T02:24:57.034Z,3.20
2022-09-06T02:27:24.195Z,3.00
2022-09-06T02:29:51.273Z,2.80
2022-09-06T02:32:26.379Z,3.60
2022-09-06T02:34:55.685Z,2.87
2022-09-06T02:37:26.192Z,3.00
2022-09-06T02:39:56.077Z,3.97
2022-09-06T02:42:24.138Z,3.20
2022-09-06T02:44:51.070Z,3.50
2022-09-06T02:47:18.539Z,3.30
2022-09-06T02:49:45.754Z,3.23
2022-09-06T02:52:12.722Z,4.93
2022-09-06T02:54:39.777Z,5.10
2022-09-06T02:57:06.690Z,5.00
2022-09-06T02:59:33.670Z,4.63
2022-09-06T03:02:00.646Z,5.87
2022-09-06T03:04:27.607Z,5.40
2022-09-06T03:06:54.556Z,5.77
2022-09-06T03:09:21.472Z,5.53
2022-09-06T03:11:48.357Z,6.27
2022-09-06T03:14:17.024Z,6.20
2022-09-06T03:16:44.018Z,5.97
2022-09-06T03:19:11.189Z,5.90
2022-09-06T03:21:38.258Z,5.53
2022-09-06T03:24:05.446Z,6.40
2022-09-06T03:26:32.435Z,5.87
2022-09-06T03:28:59.377Z,6.73
2022-09-06T03:31:26.336Z,5.77
2022-09-06T03:33:53.372Z,6.57
2022-09-06T03:36:20.318Z,6.27
2022-09-06T03:38:47.297Z,5.83
2022-09-06T03:41:14.173Z,5.90
2022-09-06T03:43:41.112Z,5.97
2022-09-06T03:46:08.100Z,5.57
2022-09-06T03:48:35.232Z,5.97
2022-09-06T03:51:02.157Z,6.10
2022-09-06T03:53:29.652Z,6.17
2022-09-06T03:55:58.130Z,6.33
2022-09-06T03:58:29.765Z,6.17
2022-09-06T04:01:01.261Z,5.93
2022-09-06T04:03:28.464Z,5.80
2022-09-06T04:05:55.413Z,6.67
2022-09-06T04:08:22.389Z,6.50
2022-09-06T04:10:51.400Z,7.03
2022-09-06T04:13:18.364Z,6.60
2022-09-06T04:15:48.802Z,6.30
2022-09-06T04:18:16.552Z,7.03
2022-09-06T04:20:45.374Z,5.67
2022-09-06T04:23:12.309Z,6.00
2022-09-06T04:25:39.592Z,6.07
2022-09-06T04:28:06.805Z,7.23
2022-09-06T04:30:33.705Z,7.03
2022-09-06T04:33:00.666Z,6.10
2022-09-06T04:35:27.560Z,5.83
2022-09-06T04:37:54.838Z,6.40
2022-09-06T04:40:21.780Z,5.57
2022-09-06T04:42:48.911Z,5.90
2022-09-06T04:45:15.856Z,5.50
2022-09-06T04:47:42.789Z,5.53
2022-09-06T04:50:10.028Z,5.83
2022-09-06T04:52:38.248Z,6.00
2022-09-06T04:55:05.764Z,5.37
2022-09-06T04:57:32.870Z,5.53
2022-09-06T04:59:59.769Z,5.10
2022-09-06T05:02:26.805Z,5.80
2022-09-06T05:04:54.842Z,5.43
2022-09-06T05:07:21.832Z,5.33
2022-09-06T05:09:48.764Z,5.70
2022-09-06T05:12:15.837Z,5.50
2022-09-06T05:14:42.779Z,6.03
2022-09-06T05:17:09.701Z,5.70
2022-09-06T05:19:36.657Z,6.63
2022-09-06T05:22:03.630Z,6.53
2022-09-06T05:24:30.541Z,6.67
2022-09-06T05:26:57.574Z,6.50
2022-09-06T05:29:27.592Z,6.80
2022-09-06T05:31:57.882Z,6.40
2022-09-06T05:34:24.916Z,6.07
2022-09-06T05:36:51.996Z,6.30
2022-09-06T05:39:21.215Z,6.37
2022-09-06T05:41:48.405Z,6.60
2022-09-06T05:44:15.364Z,7.27
2022-09-06T05:46:46.665Z,6.17
2022-09-06T05:49:14.094Z,7.70
2022-09-06T05:51:41.244Z,7.13
2022-09-06T05:54:11.189Z,6.77
2022-09-06T05:56:38.203Z,6.70
2022-09-06T05:59:05.998Z,6.23
2022-09-06T06:01:33.265Z,6.77
2022-09-06T06:04:03.002Z,7.20
2022-09-06T06:06:32.763Z,7.47
2022-09-06T06:09:00.225Z,7.13
2022-09-06T06:11:28.010Z,7.47
2022-09-06T06:13:55.425Z,7.37
2022-09-06T06:16:23.303Z,6.93
2022-09-06T06:18:52.431Z,6.50
2022-09-06T06:21:24.462Z,6.63
2022-09-06T06:23:54.204Z,6.00
2022-09-06T06:26:22.938Z,6.37
2022-09-06T06:28:50.281Z,6.23
2022-09-06T06:31:17.642Z,6.87
2022-09-06T06:33:44.715Z,11.63
2022-09-06T06:36:14.429Z,6.77
2022-09-06T06:38:43.397Z,6.07
2022-09-06T06:41:15.508Z,5.77
2022-09-06T06:43:42.545Z,5.63
2022-09-06T06:46:17.858Z,6.00
2022-09-06T06:48:46.145Z,8.10
2022-09-06T06:51:18.849Z,6.70
2022-09-06T06:53:49.755Z,5.97
2022-09-06T06:56:21.859Z,5.90
2022-09-06T06:58:52.307Z,6.00
2022-09-06T07:01:21.072Z,6.93
2022-09-06T07:03:48.932Z,6.37
2022-09-06T07:06:17.053Z,6.50
2022-09-06T07:08:44.588Z,6.23
2022-09-06T07:11:14.671Z,6.63
2022-09-06T07:13:42.165Z,6.57
2022-09-06T07:16:18.496Z,6.07
2022-09-06T07:18:45.984Z,6.83
2022-09-06T07:26:38.183Z,6.80
2022-09-06T07:29:06.540Z,6.10
2022-09-06T07:34:22.064Z,6.20
2022-09-06T07:36:51.894Z,6.00
2022-09-06T07:39:18.897Z,5.57
2022-09-06T07:41:45.833Z,5.40
2022-09-06T07:44:12.836Z,5.43
2022-09-06T07:46:39.904Z,5.07
2022-09-06T07:49:07.256Z,5.10
2022-09-06T07:51:34.227Z,5.07
2022-09-06T07:54:26.266Z,5.00
2022-09-06T07:56:48.386Z,4.67
2022-09-06T07:59:15.601Z,4.87
2022-09-06T08:01:43.153Z,4.63
2022-09-06T08:04:14.253Z,5.30
2022-09-06T08:09:31.197Z,5.00
2022-09-06T08:11:58.251Z,4.77
2022-09-06T08:14:25.171Z,5.30
2022-09-06T08:16:52.325Z,5.27
2022-09-06T08:19:19.228Z,5.10
2022-09-06T08:21:46.223Z,5.67
2022-09-06T08:24:13.360Z,5.27
2022-09-06T08:26:43.301Z,5.20
2022-09-06T08:29:11.080Z,5.10
2022-09-06T08:31:43.807Z,4.90
2022-09-06T08:34:14.326Z,5.43
2022-09-06T08:36:42.429Z,5.70
2022-09-06T08:39:10.370Z,4.70
2022-09-06T08:41:56.321Z,4.47
2022-09-06T08:47:15.724Z,5.10
2022-09-06T08:49:46.128Z,4.93
2022-09-06T08:52:36.010Z,5.10
2022-09-06T08:55:24.564Z,5.13
2022-09-06T08:58:06.363Z,5.03
2022-09-06T09:00:36.372Z,4.38
2022-09-06T09:03:18.112Z,5.25
2022-09-06T09:05:50.120Z,5.13
2022-09-06T09:08:33.490Z,4.80
2022-09-06T09:11:19.191Z,5.18
2022-09-06T09:13:59.322Z,4.55
2022-09-06T09:16:26.612Z,4.85
2022-09-06T09:18:57.155Z,5.03
2022-09-06T09:21:30.497Z,5.15
2022-09-06T09:24:03.148Z,4.95
2022-09-06T09:26:40.751Z,5.05
2022-09-06T09:29:12.666Z,5.40
2022-09-06T09:31:51.058Z,5.35
2022-09-06T09:34:37.001Z,5.13
2022-09-06T09:37:50.401Z,4.88
2022-09-06T09:40:26.137Z,5.07
2022-09-06T09:42:55.098Z,4.30
2022-09-06T09:45:30.890Z,4.72
2022-09-06T09:50:42.356Z,5.00
2022-09-06T09:53:11.344Z,4.60
2022-09-06T09:55:39.802Z,4.40
2022-09-06T13:03:36.902Z,2.70
2022-09-06T14:41:05.826Z,2.30
2022-09-06T14:43:33.395Z,2.80
2022-09-06T14:46:12.706Z,3.30
2022-09-06T14:48:42.438Z,2.20
2022-09-06T14:51:20.843Z,2.50
2022-09-06T14:53:49.805Z,3.30
2022-09-06T14:56:17.069Z,2.70
2022-09-06T14:58:44.121Z,2.78
2022-09-06T15:01:14.557Z,2.70
2022-09-06T15:03:43.763Z,2.30
2022-09-06T15:06:11.247Z,2.20
2022-09-06T15:08:38.688Z,2.40
